createdAt,value
2023-07-24T00:02:19.725Z,100780.90
2023-07-24T00:04:47.356Z,100779.79
2023-07-24T00:07:15.425Z,100779.06
2023-07-24T00:12:26.007Z,100786.66
2023-07-24T00:14:54.084Z,100784.50
2023-07-24T00:17:21.957Z,100780.48
2023-07-24T00:19:50.327Z,100776.05
2023-07-24T00:22:17.984Z,100774.56
2023-07-24T00:24:46.211Z,100772.22
2023-07-24T00:27:15.247Z,100770.90
2023-07-24T00:29:42.911Z,100767.66
2023-07-24T00:32:10.569Z,100766.17
2023-07-24T00:34:38.231Z,100766.06
2023-07-24T00:37:06.362Z,100763.30
2023-07-24T00:39:34.472Z,100764.36
2023-07-24T00:42:03.062Z,100765.98
2023-07-24T00:44:30.611Z,100767.92
2023-07-24T00:46:58.372Z,100768.45
2023-07-24T00:49:26.147Z,100770.87
2023-07-24T00:51:54.423Z,100771.19
2023-07-24T00:54:22.077Z,100772.01
2023-07-24T00:56:49.643Z,100771.23
2023-07-24T00:59:17.309Z,100772.23
2023-07-24T01:01:45.061Z,100769.04
2023-07-24T01:04:13.948Z,100769.85
2023-07-24T01:06:41.617Z,100768.74
2023-07-24T01:09:09.272Z,100776.96
2023-07-24T01:11:58.130Z,100774.24
2023-07-24T01:14:38.914Z,100774.11
2023-07-24T01:17:08.100Z,100773.80
2023-07-24T01:19:39.968Z,100773.45
2023-07-24T01:22:12.326Z,100774.47
2023-07-24T01:24:51.216Z,100777.42
2023-07-24T01:27:25.913Z,100775.66
2023-07-24T01:29:54.355Z,100776.16
2023-07-24T01:32:22.159Z,100777.50
2023-07-24T01:34:50.118Z,100775.23
2023-07-24T01:37:17.746Z,100778.30
2023-07-24T01:39:45.611Z,100779.19
2023-07-24T01:42:13.376Z,100783.85
2023-07-24T01:44:41.037Z,100784.32
2023-07-24T01:47:08.861Z,100783.73
2023-07-24T01:49:36.573Z,100782.61
2023-07-24T01:52:04.692Z,100784.08
2023-07-24T01:54:32.298Z,100781.83
2023-07-24T01:56:59.993Z,100783.38
2023-07-24T01:59:27.625Z,100784.36
2023-07-24T02:01:55.840Z,100783.52
2023-07-24T02:04:23.759Z,100783.77
2023-07-24T02:06:51.423Z,100783.13
2023-07-24T02:09:19.287Z,100785.42
2023-07-24T02:11:46.954Z,100786.79
2023-07-24T02:14:15.221Z,100790.09
2023-07-24T02:16:45.109Z,100789.08
2023-07-24T02:19:13.720Z,100793.10
2023-07-24T02:21:42.202Z,100794.52
2023-07-24T02:24:09.865Z,100793.83
2023-07-24T02:26:38.035Z,100792.17
2023-07-24T02:29:05.697Z,100797.49
2023-07-24T02:31:34.143Z,100796.73
2023-07-24T02:34:01.845Z,100794.05
2023-07-24T02:36:29.666Z,100796.88
2023-07-24T02:38:57.668Z,100796.54
2023-07-24T02:41:25.333Z,100796.36
2023-07-24T02:43:53.607Z,100797.02
2023-07-24T02:46:21.281Z,100799.58
2023-07-24T02:48:49.437Z,100799.20
2023-07-24T02:51:17.203Z,100801.95
2023-07-24T02:53:44.864Z,100803.80
2023-07-24T02:56:12.416Z,100805.45
2023-07-24T02:58:40.491Z,100808.28
2023-07-24T03:01:09.007Z,100805.81
2023-07-24T03:03:36.772Z,100807.98
2023-07-24T03:06:05.016Z,100809.96
2023-07-24T03:08:33.799Z,100804.29
2023-07-24T03:11:03.613Z,100805.14
2023-07-24T03:13:31.685Z,100806.63
2023-07-24T03:16:00.711Z,100804.29
2023-07-24T03:18:28.337Z,100800.02
2023-07-24T03:20:56.720Z,100795.07
2023-07-24T03:23:24.382Z,100797.27
2023-07-24T03:25:52.038Z,100796.65
2023-07-24T03:28:19.594Z,100793.58
2023-07-24T03:30:47.351Z,100791.86
2023-07-24T03:33:15.325Z,100791.02
2023-07-24T03:35:42.894Z,100784.59
2023-07-24T03:38:10.442Z,100781.84
2023-07-24T03:40:38.002Z,100784.55
2023-07-24T03:43:05.663Z,100781.49
2023-07-24T03:45:33.228Z,100775.56
2023-07-24T03:48:00.920Z,100775.54
2023-07-24T03:50:30.501Z,100779.92
2023-07-24T03:52:58.046Z,100775.95
2023-07-24T03:55:25.675Z,100776.02
2023-07-24T03:57:53.369Z,100776.46
2023-07-24T04:00:21.153Z,100768.67
2023-07-24T04:02:48.805Z,100769.72
2023-07-24T04:05:16.565Z,100770.94
2023-07-24T04:07:44.230Z,100772.67
2023-07-24T04:10:11.987Z,100770.13
2023-07-24T04:12:39.644Z,100764.95
2023-07-24T04:15:08.224Z,100769.10
2023-07-24T04:17:37.250Z,100769.77
2023-07-24T04:20:05.900Z,100772.86
2023-07-24T04:22:33.568Z,100780.94
2023-07-24T04:25:01.224Z,100786.73
2023-07-24T04:27:29.825Z,100797.33
2023-07-24T04:29:57.468Z,100810.40
2023-07-24T04:32:25.170Z,100824.33
2023-07-24T04:34:52.789Z,100847.15
2023-07-24T04:37:20.972Z,100886.36
2023-07-24T04:39:48.722Z,100949.38
2023-07-24T04:42:16.283Z,101048.54
2023-07-24T04:44:43.842Z,101171.34
2023-07-24T04:47:11.506Z,101308.79
2023-07-24T04:49:39.273Z,101326.34
2023-07-24T04:52:07.240Z,101181.17
2023-07-24T04:54:35.208Z,100928.95
2023-07-24T04:57:03.069Z,100690.86
2023-07-24T04:59:30.736Z,100553.95
2023-07-24T05:01:58.404Z,100468.84
2023-07-24T05:04:26.274Z,100396.35
2023-07-24T05:06:54.634Z,100325.16
2023-07-24T05:09:22.200Z,100293.81
2023-07-24T05:11:49.857Z,100251.85
2023-07-24T05:14:17.514Z,100235.34
2023-07-24T05:16:45.363Z,100243.33
2023-07-24T05:19:13.148Z,100250.58
2023-07-24T05:21:40.909Z,100291.13
2023-07-24T05:24:08.573Z,100321.63
2023-07-24T05:26:36.342Z,100313.86
2023-07-24T05:29:03.997Z,100350.90
2023-07-24T05:31:31.719Z,100359.58
2023-07-24T05:33:59.314Z,100341.30
2023-07-24T05:36:27.952Z,100311.25
2023-07-24T05:38:55.971Z,100303.55
2023-07-24T05:41:23.935Z,100320.89
2023-07-24T05:43:51.804Z,100368.41
2023-07-24T05:46:20.023Z,100403.58
2023-07-24T05:48:47.740Z,100440.79
2023-07-24T05:51:16.021Z,100479.98
2023-07-24T05:53:43.473Z,100490.35
2023-07-24T05:56:11.953Z,100500.55
2023-07-24T05:58:39.624Z,100488.79
2023-07-24T06:01:09.958Z,100476.59
2023-07-24T06:03:40.367Z,100480.03
2023-07-24T06:06:08.739Z,100488.50
2023-07-24T06:08:36.808Z,100473.28
2023-07-24T06:11:04.982Z,100477.16
2023-07-24T06:13:32.550Z,100481.27
2023-07-24T06:16:00.947Z,100490.73
2023-07-24T06:18:28.788Z,100489.63
2023-07-24T06:20:56.454Z,100498.08
2023-07-24T06:23:24.516Z,100486.27
2023-07-24T06:25:53.204Z,100485.77
2023-07-24T06:28:20.965Z,100523.52
2023-07-24T06:30:49.137Z,100540.38
2023-07-24T06:33:16.803Z,100540.43
2023-07-24T06:35:44.467Z,100543.02
2023-07-24T06:38:12.224Z,100544.02
2023-07-24T06:40:39.891Z,100549.15
2023-07-24T06:43:07.568Z,100544.50
2023-07-24T06:45:35.266Z,100541.09
2023-07-24T06:48:02.999Z,100543.80
2023-07-24T06:50:30.663Z,100545.61
2023-07-24T06:52:58.709Z,100579.69
2023-07-24T06:55:26.368Z,100601.72
2023-07-24T06:57:54.449Z,100596.34
2023-07-24T07:00:22.306Z,100606.23
2023-07-24T07:02:49.906Z,100609.35
2023-07-24T07:05:17.723Z,100620.63
2023-07-24T07:07:46.106Z,100616.04
2023-07-24T07:10:13.676Z,100617.56
2023-07-24T07:12:41.324Z,100610.05
2023-07-24T07:15:09.428Z,100635.50
2023-07-24T07:17:37.101Z,100610.96
2023-07-24T07:20:05.460Z,100570.66
2023-07-24T07:22:33.198Z,100574.67
2023-07-24T07:25:00.872Z,100583.34
2023-07-24T07:27:28.627Z,100570.29
2023-07-24T07:29:56.289Z,100579.75
2023-07-24T07:32:24.056Z,100590.23
2023-07-24T07:34:51.927Z,100580.22
2023-07-24T07:37:19.578Z,100562.08
2023-07-24T07:39:47.343Z,100555.20
2023-07-24T07:42:18.161Z,100489.15
2023-07-24T07:44:47.568Z,100440.42
2023-07-24T07:47:15.368Z,100521.34
2023-07-24T07:49:43.436Z,100556.86
2023-07-24T07:52:11.067Z,100589.63
2023-07-24T07:54:38.737Z,100535.59
2023-07-24T07:57:06.509Z,100456.14
2023-07-24T07:59:35.174Z,100423.34
2023-07-24T08:02:02.843Z,100406.30
2023-07-24T08:04:30.506Z,100423.55
2023-07-24T08:06:58.563Z,100346.15
2023-07-24T08:09:26.328Z,100317.23
2023-07-24T08:11:54.518Z,100391.75
2023-07-24T08:14:22.274Z,100335.33
2023-07-24T08:16:51.194Z,100235.30
2023-07-24T08:19:18.917Z,100139.17
2023-07-24T08:21:48.328Z,100222.43
2023-07-24T08:24:16.036Z,100127.63
2023-07-24T08:26:44.360Z,100179.20
2023-07-24T08:29:11.932Z,99941.33
2023-07-24T08:31:40.160Z,99921.70
2023-07-24T08:34:07.857Z,99959.07
2023-07-24T08:36:36.130Z,99976.02
2023-07-24T08:39:04.610Z,99984.55
2023-07-24T08:41:33.840Z,100019.23
2023-07-24T08:44:01.472Z,99928.73
2023-07-24T08:46:29.662Z,99967.41
2023-07-24T08:48:58.122Z,99863.07
2023-07-24T08:51:25.704Z,99774.08
2023-07-24T08:53:53.650Z,99705.83
2023-07-24T08:56:21.622Z,99804.63
2023-07-24T08:58:49.280Z,99794.45
2023-07-24T09:01:17.693Z,99753.56
2023-07-24T09:03:45.546Z,99681.66
2023-07-24T09:06:13.293Z,99617.98
2023-07-24T09:08:42.488Z,99652.84
2023-07-24T09:11:11.194Z,99754.77
2023-07-24T09:13:39.910Z,99886.27
2023-07-24T09:16:07.710Z,100041.71
2023-07-24T09:18:42.458Z,99999.05
2023-07-24T09:21:13.794Z,99861.05
2023-07-24T09:23:42.271Z,99837.08
2023-07-24T09:26:10.142Z,100026.19
2023-07-24T09:28:38.104Z,99902.96
2023-07-24T09:31:06.475Z,99897.53
2023-07-24T09:33:38.834Z,99830.73
2023-07-24T09:36:11.907Z,99682.88
2023-07-24T09:38:40.538Z,99599.02
2023-07-24T09:41:10.095Z,99630.16
2023-07-24T09:43:40.315Z,99719.30
2023-07-24T09:46:10.975Z,99740.45
2023-07-24T09:48:42.391Z,99790.52
2023-07-24T09:51:29.684Z,99758.48
2023-07-24T09:54:02.047Z,99808.38
2023-07-24T09:56:43.452Z,99957.50
2023-07-24T09:59:16.086Z,99958.98
2023-07-24T10:01:44.360Z,99956.54
2023-07-24T10:04:12.269Z,99904.55
2023-07-24T10:06:40.617Z,99895.04
2023-07-24T10:09:08.271Z,99679.54
2023-07-24T10:11:36.074Z,99458.38
2023-07-24T10:14:03.695Z,99362.58
2023-07-24T10:16:31.912Z,99405.70
2023-07-24T10:18:59.725Z,99355.50
2023-07-24T10:21:28.739Z,99234.20
2023-07-24T10:23:56.685Z,99267.16
2023-07-24T10:26:28.513Z,99283.55
2023-07-24T10:28:56.101Z,99464.48
2023-07-24T10:31:26.963Z,99364.23
2023-07-24T10:33:54.674Z,99357.98
2023-07-24T10:36:24.146Z,99449.38
2023-07-24T10:38:55.882Z,99468.00
2023-07-24T10:41:24.037Z,99312.48
2023-07-24T10:43:53.751Z,99526.74
2023-07-24T10:46:22.873Z,99568.15
2023-07-24T10:48:52.276Z,99522.13
2023-07-24T10:51:20.936Z,99649.42
2023-07-24T10:53:49.646Z,99733.20
2023-07-24T10:56:17.881Z,99829.59
2023-07-24T10:58:45.654Z,99682.88
2023-07-24T11:01:14.143Z,99763.82
2023-07-24T11:03:43.133Z,99737.89
2023-07-24T11:06:16.130Z,99814.15
2023-07-24T11:08:44.182Z,99900.70
2023-07-24T11:11:13.513Z,99835.53
2023-07-24T11:13:41.144Z,99898.29
2023-07-24T11:16:09.922Z,100034.48
2023-07-24T11:18:54.642Z,99868.71
2023-07-24T11:21:26.450Z,99748.42
2023-07-24T11:23:56.109Z,99718.88
2023-07-24T11:26:25.071Z,99694.71
2023-07-24T11:28:53.521Z,99498.87
2023-07-24T11:31:22.052Z,99408.73
2023-07-24T11:33:53.248Z,99328.14
2023-07-24T11:36:21.727Z,99265.73
2023-07-24T11:38:49.798Z,99425.23
2023-07-24T11:41:21.389Z,99403.58
2023-07-24T11:43:52.129Z,99136.38
2023-07-24T11:46:31.564Z,99190.45
2023-07-24T11:48:59.927Z,99616.88
2023-07-24T11:51:29.906Z,99705.04
2023-07-24T11:54:08.713Z,99491.27
2023-07-24T11:56:37.460Z,99254.05
2023-07-24T11:59:12.776Z,99482.98
2023-07-24T12:01:40.557Z,99409.16
2023-07-24T12:04:08.269Z,99511.65
2023-07-24T12:06:37.284Z,99476.19
2023-07-24T12:09:08.456Z,99459.65
2023-07-24T12:11:46.908Z,99568.52
2023-07-24T12:14:16.141Z,99356.84
2023-07-24T12:16:44.680Z,99358.86
2023-07-24T12:19:12.491Z,99335.02
2023-07-24T12:21:40.350Z,99140.77
2023-07-24T12:24:08.732Z,99137.77
2023-07-24T12:26:36.899Z,99134.79
2023-07-24T12:30:36.830Z,99141.41
2023-07-24T12:33:04.530Z,99095.41
2023-07-24T12:35:32.961Z,99157.98
2023-07-24T12:38:00.824Z,99035.41
2023-07-24T12:40:28.603Z,99089.97
2023-07-24T12:42:56.258Z,98946.60
2023-07-24T12:45:24.024Z,99110.05
2023-07-24T12:47:51.701Z,98938.77
2023-07-24T12:50:19.443Z,98777.61
2023-07-24T12:52:47.435Z,98871.06
2023-07-24T12:55:15.593Z,98997.85
2023-07-24T12:57:43.243Z,99042.73
2023-07-24T13:00:11.420Z,98988.51
2023-07-24T13:02:39.308Z,98792.66
2023-07-24T13:05:07.455Z,98769.55
2023-07-24T13:07:35.221Z,98763.81
2023-07-24T13:10:02.885Z,98911.95
2023-07-24T13:12:30.541Z,99032.33
2023-07-24T13:14:58.218Z,99152.04
2023-07-24T13:17:26.395Z,99050.25
2023-07-24T13:19:54.035Z,99133.05
2023-07-24T13:22:21.697Z,99263.66
2023-07-24T13:24:49.309Z,99206.34
2023-07-24T13:27:16.907Z,99163.85
2023-07-24T13:29:44.588Z,99099.17
2023-07-24T13:32:12.250Z,99127.61
2023-07-24T13:34:40.099Z,99118.58
2023-07-24T13:37:07.761Z,98910.50
2023-07-24T13:39:36.849Z,98925.38
2023-07-24T13:42:04.834Z,98939.76
2023-07-24T13:44:32.492Z,98877.29
2023-07-24T13:47:00.353Z,98892.05
2023-07-24T13:49:28.013Z,98990.91
2023-07-24T13:51:55.682Z,98864.44
2023-07-24T13:54:23.345Z,98873.47
2023-07-24T13:56:51.000Z,98911.23
2023-07-24T13:59:19.636Z,98878.12
2023-07-24T14:01:47.478Z,98818.42
2023-07-24T14:04:15.900Z,98789.60
2023-07-24T14:06:44.304Z,98877.64
2023-07-24T14:09:13.092Z,98904.99
2023-07-24T14:11:40.757Z,98956.33
2023-07-24T14:14:09.231Z,98888.23
2023-07-24T14:16:37.663Z,98819.48
2023-07-24T14:19:06.701Z,98808.83
2023-07-24T14:21:34.886Z,98751.56
2023-07-24T14:24:02.530Z,98890.33
2023-07-24T14:26:30.809Z,98901.91
2023-07-24T14:28:58.471Z,98887.95
2023-07-24T14:31:26.638Z,98958.69
2023-07-24T14:33:54.513Z,98997.14
2023-07-24T14:36:22.375Z,98852.23
2023-07-24T14:38:50.956Z,98712.70
2023-07-24T14:41:19.130Z,98655.02
2023-07-24T14:43:46.796Z,98732.22
2023-07-24T14:46:14.679Z,98688.73
2023-07-24T14:48:42.330Z,98655.70
2023-07-24T14:51:10.282Z,98615.77
2023-07-24T14:53:38.459Z,98760.55
2023-07-24T14:56:06.124Z,98792.95
2023-07-24T14:58:33.881Z,98748.77
2023-07-24T15:01:01.565Z,98796.23
2023-07-24T15:03:29.656Z,98902.39
2023-07-24T15:05:57.793Z,98887.05
2023-07-24T15:08:25.358Z,98910.06
2023-07-24T15:10:52.906Z,98932.07
2023-07-24T15:13:21.084Z,98926.52
2023-07-24T15:15:48.894Z,99009.52
2023-07-24T15:18:16.706Z,98961.48
2023-07-24T15:20:44.260Z,98995.08
2023-07-24T15:23:12.128Z,99113.75
2023-07-24T15:25:39.788Z,99016.63
2023-07-24T15:28:07.349Z,98850.30
2023-07-24T15:30:35.123Z,98871.17
2023-07-24T15:33:02.830Z,98860.10
2023-07-24T15:35:30.541Z,98983.14
2023-07-24T15:37:58.295Z,99177.80
2023-07-24T15:40:25.958Z,99157.80
2023-07-24T15:42:53.625Z,98964.17
2023-07-24T15:45:21.285Z,98825.52
2023-07-24T15:47:49.037Z,98865.87
2023-07-24T15:50:16.803Z,98817.70
2023-07-24T15:52:44.373Z,98699.86
2023-07-24T15:55:12.129Z,98738.85
2023-07-24T15:57:39.787Z,98773.60
2023-07-24T16:00:09.807Z,98804.56
2023-07-24T16:02:40.478Z,98748.33
2023-07-24T16:05:20.607Z,98773.73
2023-07-24T16:07:48.727Z,98880.42
2023-07-24T16:10:17.972Z,98919.13
2023-07-24T16:12:45.829Z,98707.16
2023-07-24T16:15:13.489Z,98755.19
2023-07-24T16:18:05.691Z,98771.98
2023-07-24T16:20:29.507Z,98793.27
2023-07-24T16:22:57.361Z,98807.37
2023-07-24T16:25:25.026Z,99064.40
2023-07-24T16:27:52.689Z,99210.45
2023-07-24T16:30:22.260Z,99345.71
2023-07-24T16:32:50.768Z,99449.61
2023-07-24T16:35:18.737Z,99513.54
2023-07-24T16:37:48.542Z,99624.36
2023-07-24T16:40:16.928Z,99719.39
2023-07-24T16:42:46.635Z,99875.02
2023-07-24T16:45:29.064Z,99842.52
2023-07-24T16:47:57.306Z,99865.31
2023-07-24T16:50:25.600Z,99947.11
2023-07-24T16:52:53.352Z,99949.81
2023-07-24T16:55:21.021Z,100016.50
2023-07-24T16:57:48.674Z,100060.66
2023-07-24T17:00:17.576Z,100098.48
2023-07-24T17:02:45.260Z,100182.87
2023-07-24T17:05:12.993Z,100269.80
2023-07-24T17:07:40.650Z,100339.91
2023-07-24T17:10:10.694Z,100467.15
2023-07-24T17:12:38.334Z,100607.19
2023-07-24T17:15:06.827Z,100688.73
2023-07-24T17:17:34.746Z,100798.20
2023-07-24T17:20:02.434Z,100912.78
2023-07-24T17:22:30.093Z,101035.38
2023-07-24T17:24:58.182Z,101158.42
2023-07-24T17:27:26.788Z,101277.77
2023-07-24T17:29:54.405Z,101379.85
2023-07-24T17:32:23.617Z,101370.98
2023-07-24T17:34:51.281Z,100963.91
2023-07-24T17:37:36.200Z,100588.63
2023-07-24T17:40:09.362Z,100465.52
2023-07-24T17:42:37.614Z,100397.71
2023-07-24T17:45:05.755Z,100331.33
2023-07-24T17:47:34.225Z,100273.27
2023-07-24T17:50:07.906Z,100218.31
2023-07-24T17:52:37.310Z,100164.94
2023-07-24T17:55:05.569Z,100107.89
2023-07-24T17:57:34.250Z,100064.20
2023-07-24T18:00:02.086Z,100036.05
2023-07-24T18:02:32.764Z,100013.48
2023-07-24T18:05:00.778Z,100004.88
2023-07-24T18:07:28.340Z,100005.21
2023-07-24T18:09:55.998Z,100003.33
2023-07-24T18:12:24.070Z,100022.44
2023-07-24T18:14:51.740Z,100045.55
2023-07-24T18:17:19.401Z,100061.20
2023-07-24T18:19:48.241Z,100075.11
2023-07-24T18:22:17.272Z,100122.44
2023-07-24T18:24:45.377Z,100177.60
2023-07-24T18:27:13.510Z,100252.02
2023-07-24T18:29:41.304Z,100326.36
2023-07-24T18:32:09.706Z,100388.94
2023-07-24T18:34:37.635Z,100441.46
2023-07-24T18:37:05.798Z,100467.66
2023-07-24T18:39:33.461Z,100469.67
2023-07-24T18:42:01.321Z,100485.98
2023-07-24T18:44:28.985Z,100519.58
2023-07-24T18:46:56.644Z,100573.41
2023-07-24T18:49:24.611Z,100625.44
2023-07-24T18:51:53.516Z,100662.63
2023-07-24T18:54:22.607Z,100696.90
2023-07-24T18:56:50.362Z,100739.96
2023-07-24T18:59:18.126Z,100775.40
2023-07-24T19:01:46.413Z,100807.95
2023-07-24T19:04:14.678Z,100831.82
2023-07-24T19:06:42.445Z,100848.38
2023-07-24T19:09:10.099Z,100863.55
2023-07-24T19:11:37.866Z,100871.02
2023-07-24T19:14:05.730Z,100871.17
2023-07-24T19:16:33.746Z,100875.48
2023-07-24T19:19:05.161Z,100879.79
2023-07-24T19:21:33.179Z,100882.83
2023-07-24T19:24:00.982Z,100888.64
2023-07-24T19:26:28.642Z,100892.66
2023-07-24T19:28:56.302Z,100894.05
2023-07-24T19:31:24.720Z,100898.36
2023-07-24T19:33:52.351Z,100902.39
2023-07-24T19:36:20.922Z,100900.55
2023-07-24T19:38:48.585Z,100898.97
2023-07-24T19:41:16.243Z,100904.30
2023-07-24T19:43:44.418Z,100900.80
2023-07-24T19:46:12.232Z,100901.97
2023-07-24T19:48:40.154Z,100900.01
2023-07-24T19:51:07.811Z,100891.05
2023-07-24T19:53:35.461Z,100885.11
2023-07-24T19:56:03.024Z,100878.31
2023-07-24T19:58:33.846Z,100876.02
2023-07-24T20:01:03.119Z,100869.90
2023-07-24T20:03:31.489Z,100869.13
2023-07-24T20:06:03.426Z,100868.94
2023-07-24T20:08:34.746Z,100868.07
2023-07-24T20:11:03.862Z,100867.54
2023-07-24T20:13:32.135Z,100872.20
2023-07-24T20:15:59.810Z,100876.91
2023-07-24T20:18:27.535Z,100876.67
2023-07-24T20:20:55.506Z,100875.50
2023-07-24T20:23:23.274Z,100876.73
2023-07-24T20:25:54.219Z,100871.86
2023-07-24T20:28:22.132Z,100867.29
2023-07-24T20:30:49.849Z,100851.64
2023-07-24T20:33:17.610Z,100847.33
2023-07-24T20:35:46.507Z,100841.48
2023-07-24T20:38:33.623Z,100834.41
2023-07-24T20:41:02.310Z,100830.63
2023-07-24T20:43:30.967Z,100821.80
2023-07-24T20:45:58.710Z,100815.71
2023-07-24T20:48:27.687Z,100812.34
2023-07-24T20:50:55.389Z,100814.89
2023-07-24T20:53:23.001Z,100820.16
2023-07-24T20:55:50.624Z,100830.53
2023-07-24T20:58:18.273Z,100831.25
2023-07-24T21:00:45.935Z,100834.23
2023-07-24T21:03:13.596Z,100838.11
2023-07-24T21:05:41.323Z,100842.21
2023-07-24T21:08:09.939Z,100843.87
2023-07-24T21:10:37.602Z,100844.83
2023-07-24T21:13:05.365Z,100847.02
2023-07-24T21:15:33.669Z,100850.29
2023-07-24T21:18:01.398Z,100849.25
2023-07-24T21:20:29.067Z,100848.77
2023-07-24T21:22:56.727Z,100845.86
2023-07-24T21:25:24.392Z,100845.18
2023-07-24T21:27:52.041Z,100843.84
2023-07-24T21:30:21.915Z,100844.45
2023-07-24T21:32:49.674Z,100840.81
2023-07-24T21:35:19.631Z,100839.57
2023-07-24T21:37:47.296Z,100832.89
2023-07-24T21:40:14.964Z,100832.95
2023-07-24T21:42:42.717Z,100835.98
2023-07-24T21:45:10.785Z,100842.12
2023-07-24T21:47:38.880Z,100842.14
2023-07-24T21:50:07.571Z,100835.52
2023-07-24T21:52:35.206Z,100824.70
2023-07-24T21:55:02.869Z,100819.11
2023-07-24T21:57:30.536Z,100820.27
2023-07-24T21:59:58.193Z,100820.56
2023-07-24T22:02:25.958Z,100813.49
2023-07-24T22:04:53.720Z,100803.33
2023-07-24T22:07:21.380Z,100798.33
2023-07-24T22:09:48.934Z,100789.73
2023-07-24T22:12:16.824Z,100786.99
2023-07-24T22:14:44.569Z,100784.62
2023-07-24T22:17:12.243Z,100783.92
2023-07-24T22:19:39.893Z,100779.46
2023-07-24T22:22:08.075Z,100778.09
2023-07-24T22:24:37.959Z,100778.98
2023-07-24T22:27:06.570Z,100777.78
2023-07-24T22:29:34.115Z,100770.60
2023-07-24T22:32:01.891Z,100761.08
2023-07-24T22:34:29.546Z,100760.69
2023-07-24T22:36:57.917Z,100754.92
2023-07-24T22:39:25.987Z,100753.14
2023-07-24T22:41:53.855Z,100748.21
2023-07-24T22:44:21.435Z,100739.04
2023-07-24T22:46:49.473Z,100731.59
2023-07-24T22:49:17.255Z,100724.04
2023-07-24T22:51:45.322Z,100709.45
2023-07-24T22:54:12.976Z,100696.31
2023-07-24T22:56:41.883Z,100688.42
2023-07-24T22:59:19.421Z,100692.93
2023-07-24T23:01:47.433Z,100690.02
2023-07-24T23:04:15.196Z,100685.50
2023-07-24T23:06:43.570Z,100681.06
2023-07-24T23:09:11.437Z,100674.81
2023-07-24T23:11:39.716Z,100668.52
2023-07-24T23:14:07.368Z,100658.71
2023-07-24T23:16:35.763Z,100648.55
2023-07-24T23:19:03.616Z,100638.40
2023-07-24T23:21:32.021Z,100622.30
2023-07-24T23:23:59.805Z,100607.77
2023-07-24T23:26:27.946Z,100599.23
2023-07-24T23:28:58.672Z,100586.90
2023-07-24T23:31:26.337Z,100575.98
2023-07-24T23:33:54.601Z,100563.90
2023-07-24T23:36:22.997Z,100558.81
2023-07-24T23:38:50.640Z,100556.93
2023-07-24T23:41:18.297Z,100554.88
2023-07-24T23:43:45.959Z,100557.83
2023-07-24T23:46:17.577Z,100554.49
2023-07-24T23:48:45.392Z,100556.02
2023-07-24T23:51:20.142Z,100558.23
2023-07-24T23:53:48.276Z,100547.93
2023-07-24T23:56:15.938Z,100546.99
2023-07-24T23:58:43.500Z,100548.14
